createdAt,value
2018-03-29T00:01:22.596Z,6.50
2018-03-29T00:03:50.054Z,6.50
2018-03-29T00:06:17.547Z,6.50
2018-03-29T00:08:45.814Z,6.50
2018-03-29T00:11:14.081Z,6.50
2018-03-29T00:13:41.561Z,6.50
2018-03-29T00:16:09.819Z,6.40
2018-03-29T00:18:37.301Z,6.40
2018-03-29T00:21:05.522Z,6.00
2018-03-29T00:23:33.006Z,6.00
2018-03-29T00:26:00.446Z,5.80
2018-03-29T00:28:27.921Z,5.70
2018-03-29T00:30:55.401Z,5.50
2018-03-29T00:33:23.663Z,5.40
2018-03-29T00:35:51.138Z,5.40
2018-03-29T00:38:19.365Z,5.30
2018-03-29T00:40:46.833Z,5.30
2018-03-29T00:43:14.283Z,5.20
2018-03-29T00:45:42.777Z,5.20
2018-03-29T00:48:10.237Z,5.20
2018-03-29T00:50:37.726Z,5.10
2018-03-29T00:53:17.773Z,5.10
2018-03-29T00:55:46.006Z,5.10
2018-03-29T00:58:13.458Z,5.10
2018-03-29T01:00:40.899Z,5.00
2018-03-29T01:03:08.409Z,5.00
2018-03-29T01:05:35.886Z,5.00
2018-03-29T01:08:04.125Z,4.90
2018-03-29T01:10:31.595Z,4.90
2018-03-29T01:12:59.102Z,4.80
2018-03-29T01:15:26.574Z,4.80
2018-03-29T01:17:54.068Z,4.70
2018-03-29T01:20:21.633Z,4.70
2018-03-29T01:22:49.131Z,4.60
2018-03-29T01:25:16.601Z,4.60
2018-03-29T01:27:44.045Z,4.60
2018-03-29T01:30:11.527Z,4.50
2018-03-29T01:32:38.982Z,4.50
2018-03-29T01:35:06.450Z,4.50
2018-03-29T01:37:33.899Z,4.40
2018-03-29T01:40:01.403Z,4.40
2018-03-29T01:42:28.845Z,4.40
2018-03-29T01:44:57.086Z,4.30
2018-03-29T01:47:24.590Z,4.30
2018-03-29T01:49:52.074Z,4.20
2018-03-29T01:52:19.525Z,4.10
2018-03-29T01:54:46.981Z,4.00
2018-03-29T01:57:15.223Z,3.80
2018-03-29T01:59:42.683Z,3.80
2018-03-29T02:02:10.162Z,3.60
2018-03-29T02:04:38.385Z,3.40
2018-03-29T02:07:05.881Z,3.40
2018-03-29T02:09:33.327Z,3.30
2018-03-29T02:12:00.791Z,3.20
2018-03-29T02:14:28.270Z,3.10
2018-03-29T02:16:56.537Z,2.90
2018-03-29T02:19:24.102Z,2.90
2018-03-29T02:21:51.589Z,2.80
2018-03-29T02:24:19.055Z,2.80
2018-03-29T02:26:46.509Z,2.80
2018-03-29T02:29:13.984Z,2.70
2018-03-29T02:31:41.429Z,2.70
2018-03-29T02:34:08.919Z,2.70
2018-03-29T02:36:36.379Z,2.70
2018-03-29T02:39:03.852Z,2.70
2018-03-29T02:41:31.300Z,2.60
2018-03-29T02:43:59.554Z,2.50
2018-03-29T02:46:27.074Z,2.50
2018-03-29T02:48:55.299Z,2.50
2018-03-29T02:51:22.758Z,2.40
2018-03-29T02:53:50.281Z,2.40
2018-03-29T02:56:17.769Z,2.30
2018-03-29T02:58:45.213Z,2.20
2018-03-29T03:01:12.684Z,2.10
2018-03-29T03:03:40.150Z,2.10
2018-03-29T03:06:07.639Z,2.10
2018-03-29T03:08:35.881Z,2.10
2018-03-29T03:11:03.351Z,2.00
2018-03-29T03:13:30.826Z,2.10
2018-03-29T03:15:59.064Z,2.00
2018-03-29T03:18:26.531Z,2.00
2018-03-29T03:20:53.981Z,2.10
2018-03-29T03:23:21.446Z,2.00
2018-03-29T03:25:48.900Z,2.00
2018-03-29T03:28:16.481Z,1.90
2018-03-29T03:30:43.936Z,2.00
2018-03-29T03:33:11.410Z,2.00
2018-03-29T03:35:39.636Z,1.80
2018-03-29T03:38:07.146Z,1.80
2018-03-29T03:40:35.358Z,1.70
2018-03-29T03:43:02.841Z,1.80
2018-03-29T03:45:30.329Z,1.70
2018-03-29T03:47:58.570Z,1.80
2018-03-29T03:50:26.058Z,1.80
2018-03-29T03:52:53.559Z,1.80
2018-03-29T03:55:21.032Z,1.80
2018-03-29T03:57:48.482Z,1.80
2018-03-29T04:00:15.963Z,1.80
2018-03-29T04:02:43.426Z,1.80
2018-03-29T04:05:10.927Z,1.70
2018-03-29T04:07:38.382Z,1.70
2018-03-29T04:10:05.835Z,1.70
2018-03-29T04:12:34.174Z,1.60
2018-03-29T04:15:01.623Z,1.60
2018-03-29T04:17:29.086Z,1.50
2018-03-29T04:19:56.549Z,1.50
2018-03-29T04:22:24.121Z,1.40
2018-03-29T04:24:51.700Z,1.30
2018-03-29T04:27:19.938Z,1.10
2018-03-29T04:29:47.398Z,1.10
2018-03-29T04:32:14.887Z,1.20
2018-03-29T04:34:43.139Z,1.20
2018-03-29T04:37:10.590Z,1.20
2018-03-29T04:39:38.055Z,1.20
2018-03-29T04:42:05.507Z,1.20
2018-03-29T04:44:33.069Z,1.20
2018-03-29T04:47:00.541Z,1.10
2018-03-29T04:49:28.007Z,1.10
2018-03-29T04:51:56.256Z,1.10
2018-03-29T04:54:23.763Z,1.10
2018-03-29T04:56:51.206Z,1.00
2018-03-29T04:59:19.471Z,0.90
2018-03-29T05:01:46.913Z,0.90
2018-03-29T05:04:14.376Z,0.80
2018-03-29T05:06:43.358Z,0.80
2018-03-29T05:09:10.838Z,0.80
2018-03-29T05:11:39.074Z,1.00
2018-03-29T05:14:06.536Z,0.90
2018-03-29T05:16:34.053Z,1.10
2018-03-29T05:19:01.518Z,1.20
2018-03-29T05:21:28.991Z,1.20
2018-03-29T05:23:56.437Z,1.30
2018-03-29T05:26:23.939Z,1.30
2018-03-29T05:28:51.502Z,1.40
2018-03-29T05:31:18.950Z,1.40
2018-03-29T05:33:46.434Z,1.50
2018-03-29T05:36:14.658Z,1.50
2018-03-29T05:38:42.137Z,1.50
2018-03-29T05:41:09.591Z,1.50
2018-03-29T05:43:37.089Z,1.50
2018-03-29T05:46:05.299Z,1.70
2018-03-29T05:48:32.783Z,1.70
2018-03-29T05:51:00.250Z,1.80
2018-03-29T05:53:27.726Z,1.90
2018-03-29T05:55:55.178Z,2.10
2018-03-29T05:58:22.675Z,2.20
2018-03-29T06:00:50.149Z,2.20
2018-03-29T06:03:17.645Z,2.20
2018-03-29T06:05:45.128Z,2.20
2018-03-29T06:08:13.380Z,2.20
2018-03-29T06:10:40.853Z,2.20
2018-03-29T06:13:08.308Z,2.20
2018-03-29T06:15:35.778Z,2.30
2018-03-29T06:18:04.020Z,2.50
2018-03-29T06:20:31.487Z,2.50
2018-03-29T06:22:58.942Z,2.70
2018-03-29T06:25:26.419Z,3.00
2018-03-29T06:27:54.687Z,3.50
2018-03-29T06:30:22.171Z,3.50
2018-03-29T06:32:49.634Z,3.60
2018-03-29T06:35:17.126Z,3.70
2018-03-29T06:37:44.593Z,3.80
2018-03-29T06:40:12.047Z,3.90
2018-03-29T06:42:39.556Z,4.00
2018-03-29T06:45:07.774Z,4.20
2018-03-29T06:47:35.258Z,4.20
2018-03-29T06:50:02.935Z,4.40
2018-03-29T06:52:31.200Z,4.60
2018-03-29T06:54:58.647Z,4.60
2018-03-29T06:57:26.137Z,4.70
2018-03-29T06:59:54.350Z,4.90
2018-03-29T07:02:21.822Z,4.90
2018-03-29T07:04:49.283Z,5.00
2018-03-29T07:07:16.762Z,5.10
2018-03-29T07:09:44.205Z,5.10
2018-03-29T07:12:12.446Z,5.30
2018-03-29T07:14:39.932Z,5.30
2018-03-29T07:17:07.402Z,5.30
2018-03-29T07:19:34.874Z,5.40
2018-03-29T07:22:02.341Z,5.50
2018-03-29T07:24:30.608Z,5.60
2018-03-29T07:26:58.830Z,5.60
2018-03-29T07:29:26.325Z,5.60
2018-03-29T07:31:53.784Z,5.60
2018-03-29T07:34:21.252Z,5.50
2018-03-29T07:36:48.712Z,5.50
2018-03-29T07:39:16.172Z,5.50
2018-03-29T07:41:43.646Z,5.60
2018-03-29T07:44:11.937Z,5.90
2018-03-29T07:46:39.407Z,5.90
2018-03-29T07:49:06.859Z,6.00
2018-03-29T07:51:34.342Z,6.10
2018-03-29T07:54:01.809Z,6.10
2018-03-29T07:56:29.322Z,6.10
2018-03-29T07:58:56.838Z,6.10
2018-03-29T08:01:24.294Z,6.10
2018-03-29T08:03:51.798Z,6.00
2018-03-29T08:06:20.011Z,5.90
2018-03-29T08:08:47.523Z,5.80
2018-03-29T08:11:15.737Z,6.10
2018-03-29T08:13:43.218Z,6.10
2018-03-29T08:16:10.682Z,6.30
2018-03-29T08:18:38.172Z,6.50
2018-03-29T08:21:05.640Z,6.50
2018-03-29T08:23:33.131Z,6.50
2018-03-29T08:26:00.598Z,6.40
2018-03-29T08:28:28.088Z,6.30
2018-03-29T08:30:56.334Z,6.20
2018-03-29T08:33:23.849Z,6.20
2018-03-29T08:35:51.333Z,6.20
2018-03-29T08:38:18.806Z,6.30
2018-03-29T08:40:46.302Z,6.40
2018-03-29T08:43:14.535Z,6.60
2018-03-29T08:45:42.038Z,6.60
2018-03-29T08:48:10.306Z,7.00
2018-03-29T08:50:37.800Z,6.90
2018-03-29T08:53:05.263Z,7.10
2018-03-29T08:55:32.753Z,7.30
2018-03-29T08:58:00.215Z,7.50
2018-03-29T09:00:27.714Z,7.50
2018-03-29T09:02:55.198Z,7.70
2018-03-29T09:05:22.658Z,8.00
2018-03-29T09:07:50.137Z,8.30
2018-03-29T09:10:17.626Z,8.50
2018-03-29T09:12:45.927Z,9.10
2018-03-29T09:15:13.394Z,9.10
2018-03-29T09:17:40.906Z,9.30
2018-03-29T09:20:08.383Z,9.60
2018-03-29T09:22:36.628Z,10.00
2018-03-29T09:25:04.104Z,10.00
2018-03-29T09:27:31.615Z,10.10
2018-03-29T09:29:59.094Z,10.10
2018-03-29T09:32:26.550Z,9.90
2018-03-29T09:34:54.031Z,9.90
2018-03-29T09:37:21.500Z,10.00
2018-03-29T09:39:49.044Z,10.30
2018-03-29T09:42:16.504Z,10.30
2018-03-29T09:44:44.000Z,10.20
2018-03-29T09:47:11.475Z,10.20
2018-03-29T09:49:38.988Z,10.40
2018-03-29T09:52:07.237Z,11.10
2018-03-29T09:54:35.368Z,11.10
2018-03-29T09:57:03.096Z,11.20
2018-03-29T09:59:30.609Z,11.30
2018-03-29T10:01:58.114Z,11.30
2018-03-29T10:04:25.587Z,11.30
2018-03-29T10:06:59.927Z,11.20
2018-03-29T10:09:27.397Z,11.10
2018-03-29T10:11:54.885Z,10.90
2018-03-29T10:14:22.366Z,10.60
2018-03-29T10:16:50.640Z,10.30
2018-03-29T10:19:18.094Z,10.30
2018-03-29T10:21:45.577Z,10.50
2018-03-29T10:24:13.823Z,11.20
2018-03-29T10:26:41.307Z,11.20
2018-03-29T10:29:09.544Z,11.40
2018-03-29T10:31:37.041Z,11.40
2018-03-29T10:34:05.274Z,11.30
2018-03-29T10:36:32.781Z,11.30
2018-03-29T10:39:01.037Z,10.70
2018-03-29T10:41:28.487Z,10.70
2018-03-29T10:43:55.981Z,10.60
2018-03-29T10:46:23.446Z,10.70
2018-03-29T10:48:52.057Z,11.30
2018-03-29T10:51:19.549Z,11.30
2018-03-29T10:53:47.816Z,12.20
2018-03-29T10:56:15.709Z,12.20
2018-03-29T10:58:43.966Z,12.90
2018-03-29T11:01:11.453Z,12.90
2018-03-29T11:03:39.703Z,13.10
2018-03-29T11:06:07.163Z,13.10
2018-03-29T11:08:34.644Z,13.10
2018-03-29T11:11:02.147Z,13.00
2018-03-29T11:13:29.647Z,12.90
2018-03-29T11:15:57.949Z,13.00
2018-03-29T11:18:25.394Z,13.00
2018-03-29T11:20:53.688Z,13.10
2018-03-29T11:23:21.140Z,13.10
2018-03-29T11:25:48.607Z,12.90
2018-03-29T11:28:16.087Z,12.80
2018-03-29T11:30:43.552Z,12.60
2018-03-29T11:33:11.054Z,12.60
2018-03-29T11:35:39.319Z,12.90
2018-03-29T11:38:07.589Z,13.40
2018-03-29T11:40:35.082Z,13.30
2018-03-29T11:43:03.691Z,14.00
2018-03-29T11:45:31.151Z,13.90
2018-03-29T11:47:58.638Z,14.30
2018-03-29T11:50:26.116Z,14.50
2018-03-29T11:52:54.381Z,14.20
2018-03-29T11:55:22.645Z,14.00
2018-03-29T11:57:50.146Z,14.00
2018-03-29T12:00:17.640Z,14.00
2018-03-29T12:02:45.095Z,14.10
2018-03-29T12:05:12.587Z,14.20
2018-03-29T12:07:40.068Z,14.20
2018-03-29T12:10:07.552Z,14.60
2018-03-29T12:12:35.022Z,14.90
2018-03-29T12:15:02.586Z,15.40
2018-03-29T12:17:30.070Z,15.70
2018-03-29T12:19:57.579Z,16.20
2018-03-29T12:22:25.446Z,16.40
2018-03-29T12:24:52.969Z,16.50
2018-03-29T12:27:20.450Z,16.30
2018-03-29T12:29:47.937Z,16.30
2018-03-29T12:32:16.658Z,17.00
2018-03-29T12:34:44.150Z,16.90
2018-03-29T12:37:11.653Z,17.10
2018-03-29T12:39:39.129Z,17.90
2018-03-29T12:42:06.655Z,19.70
2018-03-29T12:44:34.079Z,19.80
2018-03-29T12:47:02.351Z,17.80
2018-03-29T12:49:30.575Z,17.30
2018-03-29T12:51:58.096Z,17.30
2018-03-29T12:54:38.392Z,18.50
2018-03-29T12:57:17.886Z,18.50
2018-03-29T12:59:46.115Z,23.00
2018-03-29T13:02:13.595Z,22.90
2018-03-29T13:04:42.268Z,28.50
2018-03-29T13:07:09.736Z,28.30
2018-03-29T13:09:37.230Z,30.40
2018-03-29T13:12:04.725Z,30.40
2018-03-29T13:14:32.233Z,27.80
2018-03-29T13:17:00.526Z,22.10
2018-03-29T13:19:28.019Z,21.90
2018-03-29T13:21:55.462Z,19.60
2018-03-29T13:24:22.946Z,17.90
2018-03-29T13:26:50.426Z,16.60
2018-03-29T13:29:18.698Z,14.80
2018-03-29T13:31:46.189Z,14.70
2018-03-29T13:34:14.460Z,16.20
2018-03-29T13:36:42.693Z,18.00
2018-03-29T13:39:10.184Z,18.00
2018-03-29T13:41:38.797Z,18.10
2018-03-29T13:44:06.288Z,18.00
2018-03-29T13:46:33.759Z,18.30
2018-03-29T13:49:01.302Z,20.20
2018-03-29T13:51:28.857Z,21.30
2018-03-29T13:53:56.354Z,20.50
2018-03-29T13:56:23.864Z,19.20
2018-03-29T13:58:51.320Z,18.00
2018-03-29T14:01:18.801Z,17.10
2018-03-29T14:03:46.286Z,16.60
2018-03-29T14:06:14.546Z,15.60
2018-03-29T14:08:42.009Z,15.60
2018-03-29T14:11:09.519Z,15.20
2018-03-29T14:13:36.978Z,14.80
2018-03-29T14:16:04.497Z,14.40
2018-03-29T14:18:32.742Z,13.90
2018-03-29T14:21:00.202Z,13.90
2018-03-29T14:23:27.698Z,13.60
2018-03-29T14:25:55.935Z,13.40
2018-03-29T14:28:23.442Z,13.40
2018-03-29T14:30:51.663Z,13.50
2018-03-29T14:33:19.163Z,13.50
2018-03-29T14:35:47.404Z,13.50
2018-03-29T14:38:14.903Z,13.40
2018-03-29T14:40:42.387Z,12.90
2018-03-29T14:43:09.941Z,12.50
2018-03-29T14:45:37.414Z,12.20
2018-03-29T14:48:04.933Z,12.00
2018-03-29T14:50:33.173Z,11.70
2018-03-29T14:53:00.692Z,11.70
2018-03-29T14:55:28.215Z,11.60
2018-03-29T14:57:56.483Z,11.00
2018-03-29T15:00:24.731Z,10.80
2018-03-29T15:02:52.228Z,10.80
2018-03-29T15:05:20.506Z,10.30
2018-03-29T15:07:48.757Z,10.10
2018-03-29T15:10:17.102Z,9.90
2018-03-29T15:12:44.553Z,9.90
2018-03-29T15:15:12.028Z,9.80
2018-03-29T15:17:39.494Z,9.70
2018-03-29T15:20:06.997Z,9.60
2018-03-29T15:22:35.480Z,9.50
2018-03-29T15:25:03.843Z,9.40
2018-03-29T15:27:31.308Z,9.30
2018-03-29T15:29:59.561Z,9.40
2018-03-29T15:32:27.774Z,9.40
2018-03-29T15:34:55.304Z,9.40
2018-03-29T15:37:22.823Z,9.60
2018-03-29T15:39:50.280Z,9.70
2018-03-29T15:42:17.763Z,9.70
2018-03-29T15:44:45.247Z,9.60
2018-03-29T15:47:13.498Z,9.90
2018-03-29T15:49:40.971Z,9.90
2018-03-29T15:52:08.454Z,10.20
2018-03-29T15:54:35.929Z,10.30
2018-03-29T15:57:03.450Z,10.40
2018-03-29T15:59:30.930Z,10.40
2018-03-29T16:01:59.166Z,10.50
2018-03-29T16:04:26.661Z,10.40
2018-03-29T16:06:54.162Z,10.60
2018-03-29T16:09:21.644Z,10.70
2018-03-29T16:11:49.135Z,10.50
2018-03-29T16:14:17.410Z,10.20
2018-03-29T16:16:45.655Z,10.20
2018-03-29T16:19:13.142Z,10.20
2018-03-29T16:21:40.601Z,10.30
2018-03-29T16:24:08.878Z,10.30
2018-03-29T16:26:36.354Z,10.30
2018-03-29T16:29:03.864Z,10.40
2018-03-29T16:31:31.422Z,10.10
2018-03-29T16:33:58.880Z,9.90
2018-03-29T16:36:26.397Z,9.70
2018-03-29T16:38:53.850Z,9.80
2018-03-29T16:41:21.339Z,9.80
2018-03-29T16:43:48.851Z,9.60
2018-03-29T16:46:16.363Z,9.50
2018-03-29T16:48:43.898Z,9.30
2018-03-29T16:51:11.388Z,9.20
2018-03-29T16:53:38.928Z,9.10
2018-03-29T16:56:06.382Z,9.00
2018-03-29T16:58:34.647Z,8.90
2018-03-29T17:01:02.154Z,8.80
2018-03-29T17:03:29.647Z,8.70
2018-03-29T17:05:57.171Z,8.60
2018-03-29T17:08:24.775Z,8.60
2018-03-29T17:10:52.244Z,8.50
2018-03-29T17:13:19.731Z,8.30
2018-03-29T17:15:47.278Z,8.10
2018-03-29T17:18:14.743Z,8.00
2018-03-29T17:20:42.328Z,7.80
2018-03-29T17:23:10.580Z,7.60
2018-03-29T17:25:38.070Z,7.60
2018-03-29T17:28:06.315Z,7.40
2018-03-29T17:30:33.828Z,7.40
2018-03-29T17:33:01.334Z,7.30
2018-03-29T17:35:28.854Z,7.20
2018-03-29T17:37:56.340Z,7.10
2018-03-29T17:40:23.850Z,7.00
2018-03-29T17:42:51.328Z,6.90
2018-03-29T17:45:18.889Z,6.80
2018-03-29T17:47:46.355Z,6.70
2018-03-29T17:50:13.873Z,6.70
2018-03-29T17:52:42.105Z,6.40
2018-03-29T17:55:10.352Z,6.30
2018-03-29T17:57:37.877Z,6.30
2018-03-29T18:00:06.121Z,6.00
2018-03-29T18:02:33.648Z,6.00
2018-03-29T18:05:01.147Z,5.90
2018-03-29T18:07:28.620Z,5.70
2018-03-29T18:09:56.131Z,5.60
2018-03-29T18:12:23.635Z,5.50
2018-03-29T18:14:51.855Z,5.30
2018-03-29T18:17:19.349Z,5.30
2018-03-29T18:19:46.832Z,5.20
2018-03-29T18:22:15.098Z,5.10
2018-03-29T18:24:42.559Z,5.10
2018-03-29T18:27:10.081Z,5.10
2018-03-29T18:29:37.601Z,5.00
2018-03-29T18:32:05.866Z,4.90
2018-03-29T18:34:34.111Z,4.80
2018-03-29T18:37:01.638Z,4.80
2018-03-29T18:39:29.113Z,4.80
2018-03-29T18:41:56.580Z,4.70
2018-03-29T18:44:24.073Z,4.60
2018-03-29T18:46:52.299Z,4.50
2018-03-29T18:49:19.827Z,4.50
2018-03-29T18:51:47.286Z,4.50
2018-03-29T18:54:14.778Z,4.40
2018-03-29T18:56:42.286Z,4.40
2018-03-29T18:59:10.564Z,4.40
2018-03-29T19:01:38.092Z,4.40
2018-03-29T19:04:05.659Z,4.40
2018-03-29T19:06:33.935Z,4.20
2018-03-29T19:09:01.463Z,4.10
2018-03-29T19:11:28.967Z,4.00
2018-03-29T19:13:57.249Z,3.90
2018-03-29T19:16:24.739Z,3.90
2018-03-29T19:18:52.246Z,3.90
2018-03-29T19:21:19.850Z,3.80
2018-03-29T19:23:47.240Z,3.80
2018-03-29T19:26:14.739Z,3.70
2018-03-29T19:28:42.971Z,3.60
2018-03-29T19:31:10.497Z,3.70
2018-03-29T19:33:38.032Z,3.70
2018-03-29T19:36:07.254Z,3.70
2018-03-29T19:38:34.750Z,3.60
2018-03-29T19:41:02.969Z,3.60
2018-03-29T19:43:31.245Z,3.50
2018-03-29T19:45:59.496Z,3.50
2018-03-29T19:48:28.486Z,3.40
2018-03-29T19:50:55.978Z,3.40
2018-03-29T19:53:24.278Z,3.20
2018-03-29T19:55:51.790Z,3.20
2018-03-29T19:58:19.301Z,3.20
2018-03-29T20:00:48.102Z,3.20
2018-03-29T20:03:15.619Z,3.30
2018-03-29T20:05:44.116Z,3.20
2018-03-29T20:08:11.624Z,3.20
2018-03-29T20:10:39.101Z,3.10
2018-03-29T20:13:06.589Z,3.00
2018-03-29T20:15:34.088Z,3.00
2018-03-29T20:18:01.598Z,3.10
2018-03-29T20:20:29.126Z,3.10
2018-03-29T20:22:56.592Z,3.20
2018-03-29T20:25:24.081Z,3.20
2018-03-29T20:27:51.550Z,3.20
2018-03-29T20:30:19.222Z,3.20
2018-03-29T20:32:46.696Z,3.20
2018-03-29T20:35:14.206Z,3.10
2018-03-29T20:37:42.502Z,3.00
2018-03-29T20:40:10.013Z,3.00
2018-03-29T20:42:37.471Z,3.10
2018-03-29T20:45:04.970Z,3.10
2018-03-29T20:47:32.472Z,3.20
2018-03-29T20:49:59.978Z,3.20
2018-03-29T20:52:27.489Z,3.20
2018-03-29T20:54:54.984Z,3.20
2018-03-29T20:57:23.315Z,3.10
2018-03-29T20:59:50.793Z,3.10
2018-03-29T21:02:18.304Z,3.00
2018-03-29T21:04:45.777Z,2.90
2018-03-29T21:07:13.315Z,2.90
2018-03-29T21:09:40.812Z,2.90
2018-03-29T21:12:08.349Z,2.80
2018-03-29T21:14:35.854Z,2.80
2018-03-29T21:17:03.345Z,2.70
2018-03-29T21:19:30.862Z,2.60
2018-03-29T21:21:58.350Z,2.60
2018-03-29T21:24:26.671Z,2.50
2018-03-29T21:26:54.162Z,2.50
2018-03-29T21:29:21.651Z,2.40
2018-03-29T21:31:49.157Z,2.30
2018-03-29T21:34:16.717Z,2.20
2018-03-29T21:36:44.179Z,2.10
2018-03-29T21:39:11.694Z,2.10
2018-03-29T21:41:39.201Z,2.20
2018-03-29T21:44:06.710Z,2.20
2018-03-29T21:46:34.193Z,2.20
2018-03-29T21:49:01.667Z,2.30
2018-03-29T21:51:29.191Z,2.30
2018-03-29T21:53:56.710Z,2.30
2018-03-29T21:56:24.208Z,2.30
2018-03-29T21:58:51.702Z,2.20
2018-03-29T22:01:19.185Z,2.20
2018-03-29T22:03:46.672Z,2.20
2018-03-29T22:06:14.172Z,2.10
2018-03-29T22:08:41.667Z,2.10
2018-03-29T22:11:09.961Z,2.00
2018-03-29T22:13:44.033Z,2.00
2018-03-29T22:16:11.506Z,1.90
2018-03-29T22:18:38.998Z,1.80
2018-03-29T22:21:06.476Z,1.70
2018-03-29T22:23:33.978Z,1.70
2018-03-29T22:26:02.220Z,1.50
2018-03-29T22:28:29.726Z,1.50
2018-03-29T22:30:58.015Z,1.60
2018-03-29T22:33:25.481Z,1.60
2018-03-29T22:35:52.956Z,1.60
2018-03-29T22:38:20.431Z,1.50
2018-03-29T22:40:47.933Z,1.50
2018-03-29T22:43:16.207Z,1.40
2018-03-29T22:45:44.512Z,1.50
2018-03-29T22:48:12.514Z,1.50
2018-03-29T22:50:40.935Z,1.40
2018-03-29T22:53:09.146Z,1.40
2018-03-29T22:55:36.641Z,1.40
2018-03-29T22:58:04.089Z,1.50
2018-03-29T23:00:35.547Z,1.50
2018-03-29T23:03:03.034Z,1.60
2018-03-29T23:05:31.289Z,1.70
2018-03-29T23:07:58.756Z,1.60
2018-03-29T23:10:26.240Z,1.70
2018-03-29T23:12:53.717Z,1.60
2018-03-29T23:15:21.202Z,1.50
2018-03-29T23:17:48.719Z,1.40
2018-03-29T23:20:16.214Z,1.40
2018-03-29T23:22:44.158Z,1.30
2018-03-29T23:25:11.617Z,1.40
2018-03-29T23:27:39.144Z,1.50
2018-03-29T23:30:07.363Z,1.60
2018-03-29T23:32:34.864Z,1.50
2018-03-29T23:35:02.389Z,1.60
2018-03-29T23:37:30.582Z,1.50
2018-03-29T23:39:58.038Z,1.50
2018-03-29T23:42:25.547Z,1.40
2018-03-29T23:44:53.005Z,1.30
2018-03-29T23:47:20.542Z,1.20
2018-03-29T23:49:48.799Z,1.10
2018-03-29T23:52:16.269Z,1.10
2018-03-29T23:54:43.762Z,1.00
2018-03-29T23:57:11.242Z,0.90
2018-03-29T23:59:38.826Z,0.80
